sensor_id;sensor_type;location;lat;lon;timestamp;temperature;humidity
5394;DHT22;2720;52.396;10.064;2023-07-31T00:01:56;14.80;99.90
5394;DHT22;2720;52.396;10.064;2023-07-31T00:04:23;14.80;99.90
5394;DHT22;2720;52.396;10.064;2023-07-31T00:06:50;14.90;99.90
5394;DHT22;2720;52.396;10.064;2023-07-31T00:09:18;14.90;99.90
5394;DHT22;2720;52.396;10.064;2023-07-31T00:11:45;14.90;99.90
5394;DHT22;2720;52.396;10.064;2023-07-31T00:14:12;15.00;99.90
5394;DHT22;2720;52.396;10.064;2023-07-31T00:16:39;15.00;99.90
5394;DHT22;2720;52.396;10.064;2023-07-31T00:19:06;14.90;99.90
5394;DHT22;2720;52.396;10.064;2023-07-31T00:21:33;15.00;99.90
5394;DHT22;2720;52.396;10.064;2023-07-31T00:24:00;15.00;99.90
5394;DHT22;2720;52.396;10.064;2023-07-31T00:26:28;15.00;99.90
5394;DHT22;2720;52.396;10.064;2023-07-31T00:28:55;15.00;99.90
5394;DHT22;2720;52.396;10.064;2023-07-31T00:31:22;15.00;99.90
5394;DHT22;2720;52.396;10.064;2023-07-31T00:33:49;15.00;99.90
5394;DHT22;2720;52.396;10.064;2023-07-31T00:36:16;15.00;99.90
5394;DHT22;2720;52.396;10.064;2023-07-31T00:38:43;15.00;99.90
5394;DHT22;2720;52.396;10.064;2023-07-31T00:41:10;16.00;99.90
5394;DHT22;2720;52.396;10.064;2023-07-31T00:43:38;15.00;99.90
5394;DHT22;2720;52.396;10.064;2023-07-31T00:46:06;15.00;99.90
5394;DHT22;2720;52.396;10.064;2023-07-31T00:48:34;15.00;99.90
5394;DHT22;2720;52.396;10.064;2023-07-31T00:51:01;15.00;99.90
5394;DHT22;2720;52.396;10.064;2023-07-31T00:53:28;15.10;99.90
5394;DHT22;2720;52.396;10.064;2023-07-31T00:55:56;15.10;99.90
5394;DHT22;2720;52.396;10.064;2023-07-31T00:58:23;15.10;99.90
5394;DHT22;2720;52.396;10.064;2023-07-31T01:00:51;15.00;99.90
5394;DHT22;2720;52.396;10.064;2023-07-31T01:03:18;15.00;99.90
5394;DHT22;2720;52.396;10.064;2023-07-31T01:05:59;15.00;99.90
5394;DHT22;2720;52.396;10.064;2023-07-31T01:11:19;15.00;99.90
5394;DHT22;2720;52.396;10.064;2023-07-31T01:13:46;15.00;99.90
5394;DHT22;2720;52.396;10.064;2023-07-31T01:16:14;14.90;99.90
5394;DHT22;2720;52.396;10.064;2023-07-31T01:18:41;14.90;99.90
5394;DHT22;2720;52.396;10.064;2023-07-31T01:21:37;14.90;99.90
5394;DHT22;2720;52.396;10.064;2023-07-31T01:24:28;14.90;99.90
5394;DHT22;2720;52.396;10.064;2023-07-31T01:27:02;14.90;99.90
5394;DHT22;2720;52.396;10.064;2023-07-31T01:29:36;14.90;99.90
5394;DHT22;2720;52.396;10.064;2023-07-31T01:32:05;14.80;99.90
5394;DHT22;2720;52.396;10.064;2023-07-31T01:34:34;14.80;99.90
5394;DHT22;2720;52.396;10.064;2023-07-31T01:37:02;14.80;99.90
5394;DHT22;2720;52.396;10.064;2023-07-31T01:39:29;14.80;99.90
5394;DHT22;2720;52.396;10.064;2023-07-31T01:41:58;14.80;99.90
5394;DHT22;2720;52.396;10.064;2023-07-31T01:44:25;14.80;99.90
5394;DHT22;2720;52.396;10.064;2023-07-31T01:46:52;14.80;99.90
5394;DHT22;2720;52.396;10.064;2023-07-31T01:49:18;14.80;99.90
5394;DHT22;2720;52.396;10.064;2023-07-31T01:51:45;14.70;99.90
5394;DHT22;2720;52.396;10.064;2023-07-31T01:54:12;14.70;99.90
5394;DHT22;2720;52.396;10.064;2023-07-31T01:56:39;14.80;99.90
5394;DHT22;2720;52.396;10.064;2023-07-31T01:59:08;14.70;99.90
5394;DHT22;2720;52.396;10.064;2023-07-31T02:01:34;14.70;99.90
5394;DHT22;2720;52.396;10.064;2023-07-31T02:04:01;14.70;99.90
5394;DHT22;2720;52.396;10.064;2023-07-31T02:06:30;14.70;99.90
5394;DHT22;2720;52.396;10.064;2023-07-31T02:08:57;14.70;99.90
5394;DHT22;2720;52.396;10.064;2023-07-31T02:11:24;14.70;99.90
5394;DHT22;2720;52.396;10.064;2023-07-31T02:13:51;14.70;99.90
5394;DHT22;2720;52.396;10.064;2023-07-31T02:16:19;14.70;99.90
5394;DHT22;2720;52.396;10.064;2023-07-31T02:18:46;14.70;99.90
5394;DHT22;2720;52.396;10.064;2023-07-31T02:21:13;14.70;99.90
5394;DHT22;2720;52.396;10.064;2023-07-31T02:23:40;14.70;99.90
5394;DHT22;2720;52.396;10.064;2023-07-31T02:26:07;14.70;99.90
5394;DHT22;2720;52.396;10.064;2023-07-31T02:28:34;14.70;99.90
5394;DHT22;2720;52.396;10.064;2023-07-31T02:31:01;14.70;99.90
5394;DHT22;2720;52.396;10.064;2023-07-31T02:33:29;14.70;99.90
5394;DHT22;2720;52.396;10.064;2023-07-31T02:35:56;14.70;99.90
5394;DHT22;2720;52.396;10.064;2023-07-31T02:38:23;14.70;99.90
5394;DHT22;2720;52.396;10.064;2023-07-31T02:40:50;14.70;99.90
5394;DHT22;2720;52.396;10.064;2023-07-31T02:43:17;14.60;99.90
5394;DHT22;2720;52.396;10.064;2023-07-31T02:45:43;14.70;99.90
5394;DHT22;2720;52.396;10.064;2023-07-31T02:48:10;14.70;99.90
5394;DHT22;2720;52.396;10.064;2023-07-31T02:50:39;14.70;99.90
5394;DHT22;2720;52.396;10.064;2023-07-31T02:53:06;14.70;99.90
5394;DHT22;2720;52.396;10.064;2023-07-31T02:55:33;14.70;99.90
5394;DHT22;2720;52.396;10.064;2023-07-31T02:57:59;14.70;99.90
5394;DHT22;2720;52.396;10.064;2023-07-31T03:00:27;14.80;99.90
5394;DHT22;2720;52.396;10.064;2023-07-31T03:02:54;14.80;99.90
5394;DHT22;2720;52.396;10.064;2023-07-31T03:05:21;14.80;99.90
5394;DHT22;2720;52.396;10.064;2023-07-31T03:07:49;14.80;99.90
5394;DHT22;2720;52.396;10.064;2023-07-31T03:10:16;14.80;99.90
5394;DHT22;2720;52.396;10.064;2023-07-31T03:12:46;14.80;99.90
5394;DHT22;2720;52.396;10.064;2023-07-31T03:15:13;14.70;99.90
5394;DHT22;2720;52.396;10.064;2023-07-31T03:17:40;14.80;99.90
5394;DHT22;2720;52.396;10.064;2023-07-31T03:20:08;14.80;99.90
5394;DHT22;2720;52.396;10.064;2023-07-31T03:22:35;14.70;99.90
5394;DHT22;2720;52.396;10.064;2023-07-31T03:25:04;14.70;99.90
5394;DHT22;2720;52.396;10.064;2023-07-31T03:27:31;14.80;99.90
5394;DHT22;2720;52.396;10.064;2023-07-31T03:29:59;14.70;99.90
5394;DHT22;2720;52.396;10.064;2023-07-31T03:32:26;14.70;99.90
5394;DHT22;2720;52.396;10.064;2023-07-31T03:34:53;14.80;99.90
5394;DHT22;2720;52.396;10.064;2023-07-31T03:37:20;14.80;99.90
5394;DHT22;2720;52.396;10.064;2023-07-31T03:39:47;14.70;99.90
5394;DHT22;2720;52.396;10.064;2023-07-31T03:42:15;14.70;99.90
5394;DHT22;2720;52.396;10.064;2023-07-31T03:44:42;14.70;99.90
5394;DHT22;2720;52.396;10.064;2023-07-31T03:47:09;14.70;99.90
5394;DHT22;2720;52.396;10.064;2023-07-31T03:49:36;14.80;99.90
5394;DHT22;2720;52.396;10.064;2023-07-31T03:52:04;14.80;99.90
5394;DHT22;2720;52.396;10.064;2023-07-31T03:54:31;14.80;99.90
5394;DHT22;2720;52.396;10.064;2023-07-31T03:56:58;14.80;99.90
5394;DHT22;2720;52.396;10.064;2023-07-31T03:59:26;14.80;99.90
5394;DHT22;2720;52.396;10.064;2023-07-31T04:01:53;14.80;99.90
5394;DHT22;2720;52.396;10.064;2023-07-31T04:04:20;14.80;99.90
5394;DHT22;2720;52.396;10.064;2023-07-31T04:06:47;14.80;99.90
5394;DHT22;2720;52.396;10.064;2023-07-31T04:09:14;14.80;99.90
5394;DHT22;2720;52.396;10.064;2023-07-31T04:11:41;14.80;99.90
5394;DHT22;2720;52.396;10.064;2023-07-31T04:14:09;14.80;99.90
5394;DHT22;2720;52.396;10.064;2023-07-31T04:16:37;14.80;99.90
5394;DHT22;2720;52.396;10.064;2023-07-31T04:19:04;14.80;99.90
5394;DHT22;2720;52.396;10.064;2023-07-31T04:21:31;14.80;99.90
5394;DHT22;2720;52.396;10.064;2023-07-31T04:23:58;14.80;99.90
5394;DHT22;2720;52.396;10.064;2023-07-31T04:26:25;14.90;99.90
5394;DHT22;2720;52.396;10.064;2023-07-31T04:28:52;15.00;99.90
5394;DHT22;2720;52.396;10.064;2023-07-31T04:31:18;14.90;99.90
5394;DHT22;2720;52.396;10.064;2023-07-31T04:33:47;14.90;99.90
5394;DHT22;2720;52.396;10.064;2023-07-31T04:36:14;14.90;99.90
5394;DHT22;2720;52.396;10.064;2023-07-31T04:38:41;14.80;99.90
5394;DHT22;2720;52.396;10.064;2023-07-31T04:41:08;14.80;99.90
5394;DHT22;2720;52.396;10.064;2023-07-31T04:43:34;14.80;99.90
5394;DHT22;2720;52.396;10.064;2023-07-31T04:46:04;14.80;99.90
5394;DHT22;2720;52.396;10.064;2023-07-31T04:48:31;14.80;99.90
5394;DHT22;2720;52.396;10.064;2023-07-31T04:50:59;14.80;99.90
5394;DHT22;2720;52.396;10.064;2023-07-31T04:53:26;14.70;99.90
5394;DHT22;2720;52.396;10.064;2023-07-31T04:55:53;14.70;99.90
5394;DHT22;2720;52.396;10.064;2023-07-31T04:58:20;14.70;99.90
5394;DHT22;2720;52.396;10.064;2023-07-31T05:00:47;14.80;99.90
5394;DHT22;2720;52.396;10.064;2023-07-31T05:03:14;14.80;99.90
5394;DHT22;2720;52.396;10.064;2023-07-31T05:05:41;14.70;99.90
5394;DHT22;2720;52.396;10.064;2023-07-31T05:08:09;14.80;99.90
5394;DHT22;2720;52.396;10.064;2023-07-31T05:10:36;14.80;99.90
5394;DHT22;2720;52.396;10.064;2023-07-31T05:13:03;14.90;99.90
5394;DHT22;2720;52.396;10.064;2023-07-31T05:15:30;15.00;99.90
5394;DHT22;2720;52.396;10.064;2023-07-31T05:17:57;15.00;99.90
5394;DHT22;2720;52.396;10.064;2023-07-31T05:20:24;15.00;99.90
5394;DHT22;2720;52.396;10.064;2023-07-31T05:22:51;15.00;99.90
5394;DHT22;2720;52.396;10.064;2023-07-31T05:25:20;15.00;99.90
5394;DHT22;2720;52.396;10.064;2023-07-31T05:27:47;14.90;99.90
5394;DHT22;2720;52.396;10.064;2023-07-31T05:30:13;14.90;99.90
5394;DHT22;2720;52.396;10.064;2023-07-31T05:32:40;14.90;99.90
5394;DHT22;2720;52.396;10.064;2023-07-31T05:35:08;14.90;99.90
5394;DHT22;2720;52.396;10.064;2023-07-31T05:37:35;14.90;99.90
5394;DHT22;2720;52.396;10.064;2023-07-31T05:40:02;14.90;99.90
5394;DHT22;2720;52.396;10.064;2023-07-31T05:42:30;14.90;99.90
5394;DHT22;2720;52.396;10.064;2023-07-31T05:44:57;14.90;99.90
5394;DHT22;2720;52.396;10.064;2023-07-31T05:47:24;14.90;99.90
5394;DHT22;2720;52.396;10.064;2023-07-31T05:49:51;15.00;99.90
5394;DHT22;2720;52.396;10.064;2023-07-31T05:52:18;14.90;99.90
5394;DHT22;2720;52.396;10.064;2023-07-31T05:54:45;15.00;99.90
5394;DHT22;2720;52.396;10.064;2023-07-31T05:57:12;15.00;99.90
5394;DHT22;2720;52.396;10.064;2023-07-31T05:59:40;15.10;99.90
5394;DHT22;2720;52.396;10.064;2023-07-31T06:02:07;15.10;99.90
5394;DHT22;2720;52.396;10.064;2023-07-31T06:04:34;15.20;99.90
5394;DHT22;2720;52.396;10.064;2023-07-31T06:07:01;15.20;99.90
5394;DHT22;2720;52.396;10.064;2023-07-31T06:09:29;15.20;99.90
5394;DHT22;2720;52.396;10.064;2023-07-31T06:11:56;15.20;99.90
5394;DHT22;2720;52.396;10.064;2023-07-31T06:14:23;15.30;99.90
5394;DHT22;2720;52.396;10.064;2023-07-31T06:16:51;15.30;99.90
5394;DHT22;2720;52.396;10.064;2023-07-31T06:19:18;15.30;99.90
5394;DHT22;2720;52.396;10.064;2023-07-31T06:21:45;15.40;99.90
5394;DHT22;2720;52.396;10.064;2023-07-31T06:24:12;15.40;99.90
5394;DHT22;2720;52.396;10.064;2023-07-31T06:26:44;15.40;99.90
5394;DHT22;2720;52.396;10.064;2023-07-31T06:29:11;15.50;99.90
5394;DHT22;2720;52.396;10.064;2023-07-31T06:31:38;15.70;99.90
5394;DHT22;2720;52.396;10.064;2023-07-31T06:34:06;15.80;99.90
5394;DHT22;2720;52.396;10.064;2023-07-31T06:36:33;15.70;99.90
5394;DHT22;2720;52.396;10.064;2023-07-31T06:39:00;15.90;99.90
5394;DHT22;2720;52.396;10.064;2023-07-31T06:41:27;15.90;99.90
5394;DHT22;2720;52.396;10.064;2023-07-31T06:43:54;15.90;99.90
5394;DHT22;2720;52.396;10.064;2023-07-31T06:46:21;16.00;99.90
5394;DHT22;2720;52.396;10.064;2023-07-31T06:51:16;15.80;99.90
5394;DHT22;2720;52.396;10.064;2023-07-31T06:53:43;15.90;99.90
5394;DHT22;2720;52.396;10.064;2023-07-31T06:56:11;15.90;99.90
5394;DHT22;2720;52.396;10.064;2023-07-31T06:58:38;15.80;99.90
5394;DHT22;2720;52.396;10.064;2023-07-31T07:01:05;15.70;99.90
5394;DHT22;2720;52.396;10.064;2023-07-31T07:03:32;15.60;99.90
5394;DHT22;2720;52.396;10.064;2023-07-31T07:05:59;15.60;99.90
5394;DHT22;2720;52.396;10.064;2023-07-31T07:08:28;15.60;99.90
5394;DHT22;2720;52.396;10.064;2023-07-31T07:10:55;15.60;99.90
5394;DHT22;2720;52.396;10.064;2023-07-31T07:13:22;15.60;99.90
5394;DHT22;2720;52.396;10.064;2023-07-31T07:15:49;15.50;99.90
5394;DHT22;2720;52.396;10.064;2023-07-31T07:18:16;15.50;99.90
5394;DHT22;2720;52.396;10.064;2023-07-31T07:20:46;15.60;99.90
5394;DHT22;2720;52.396;10.064;2023-07-31T07:23:14;15.50;99.90
5394;DHT22;2720;52.396;10.064;2023-07-31T07:25:42;15.60;99.90
5394;DHT22;2720;52.396;10.064;2023-07-31T07:28:09;15.60;99.90
5394;DHT22;2720;52.396;10.064;2023-07-31T07:30:36;15.60;99.90
5394;DHT22;2720;52.396;10.064;2023-07-31T07:33:03;15.60;99.90
5394;DHT22;2720;52.396;10.064;2023-07-31T07:35:32;15.60;99.90
5394;DHT22;2720;52.396;10.064;2023-07-31T07:37:59;15.60;99.90
5394;DHT22;2720;52.396;10.064;2023-07-31T07:40:26;15.70;99.90
5394;DHT22;2720;52.396;10.064;2023-07-31T07:42:55;15.80;99.90
5394;DHT22;2720;52.396;10.064;2023-07-31T07:45:21;15.90;99.90
5394;DHT22;2720;52.396;10.064;2023-07-31T07:47:48;16.00;99.90
5394;DHT22;2720;52.396;10.064;2023-07-31T07:50:15;16.20;99.90
5394;DHT22;2720;52.396;10.064;2023-07-31T07:52:42;16.30;99.90
5394;DHT22;2720;52.396;10.064;2023-07-31T07:55:09;16.50;99.90
5394;DHT22;2720;52.396;10.064;2023-07-31T07:57:36;16.60;99.90
5394;DHT22;2720;52.396;10.064;2023-07-31T08:00:06;16.70;99.90
5394;DHT22;2720;52.396;10.064;2023-07-31T08:02:36;16.80;99.90
5394;DHT22;2720;52.396;10.064;2023-07-31T08:05:03;17.00;99.90
5394;DHT22;2720;52.396;10.064;2023-07-31T08:07:30;17.00;99.90
5394;DHT22;2720;52.396;10.064;2023-07-31T08:09:57;17.00;99.90
5394;DHT22;2720;52.396;10.064;2023-07-31T08:12:24;17.00;99.90
5394;DHT22;2720;52.396;10.064;2023-07-31T08:14:51;17.10;99.90
5394;DHT22;2720;52.396;10.064;2023-07-31T08:17:19;17.30;99.90
5394;DHT22;2720;52.396;10.064;2023-07-31T08:19:46;17.50;99.90
5394;DHT22;2720;52.396;10.064;2023-07-31T08:22:13;17.90;99.90
5394;DHT22;2720;52.396;10.064;2023-07-31T08:24:40;17.90;99.90
5394;DHT22;2720;52.396;10.064;2023-07-31T08:27:07;17.90;99.90
5394;DHT22;2720;52.396;10.064;2023-07-31T08:29:34;17.90;99.90
5394;DHT22;2720;52.396;10.064;2023-07-31T08:32:01;17.90;99.90
5394;DHT22;2720;52.396;10.064;2023-07-31T08:34:29;17.80;99.90
5394;DHT22;2720;52.396;10.064;2023-07-31T08:36:56;17.80;99.90
5394;DHT22;2720;52.396;10.064;2023-07-31T08:39:23;18.00;99.90
5394;DHT22;2720;52.396;10.064;2023-07-31T08:41:50;17.90;99.90
5394;DHT22;2720;52.396;10.064;2023-07-31T08:44:18;17.90;99.90
5394;DHT22;2720;52.396;10.064;2023-07-31T08:46:46;18.00;99.90
5394;DHT22;2720;52.396;10.064;2023-07-31T08:49:14;17.90;99.90
5394;DHT22;2720;52.396;10.064;2023-07-31T08:51:43;18.00;99.90
5394;DHT22;2720;52.396;10.064;2023-07-31T08:54:13;18.20;99.90
5394;DHT22;2720;52.396;10.064;2023-07-31T08:56:40;18.20;99.90
5394;DHT22;2720;52.396;10.064;2023-07-31T08:59:07;18.20;99.90
5394;DHT22;2720;52.396;10.064;2023-07-31T09:01:39;18.20;99.90
5394;DHT22;2720;52.396;10.064;2023-07-31T09:04:10;18.10;99.90
5394;DHT22;2720;52.396;10.064;2023-07-31T09:06:39;17.90;99.90
5394;DHT22;2720;52.396;10.064;2023-07-31T09:09:08;17.70;99.90
5394;DHT22;2720;52.396;10.064;2023-07-31T09:11:35;17.70;99.90
5394;DHT22;2720;52.396;10.064;2023-07-31T09:14:03;17.90;99.90
5394;DHT22;2720;52.396;10.064;2023-07-31T09:16:34;18.10;99.90
5394;DHT22;2720;52.396;10.064;2023-07-31T09:19:01;18.20;99.90
5394;DHT22;2720;52.396;10.064;2023-07-31T09:21:29;18.20;99.90
5394;DHT22;2720;52.396;10.064;2023-07-31T09:23:55;18.20;99.90
5394;DHT22;2720;52.396;10.064;2023-07-31T09:26:31;17.90;99.90
5394;DHT22;2720;52.396;10.064;2023-07-31T09:28:58;17.60;99.90
5394;DHT22;2720;52.396;10.064;2023-07-31T09:31:39;17.60;99.90
5394;DHT22;2720;52.396;10.064;2023-07-31T09:34:06;17.50;99.90
5394;DHT22;2720;52.396;10.064;2023-07-31T09:36:33;17.60;99.90
5394;DHT22;2720;52.396;10.064;2023-07-31T09:39:09;17.70;99.90
5394;DHT22;2720;52.396;10.064;2023-07-31T09:41:37;17.90;99.90
5394;DHT22;2720;52.396;10.064;2023-07-31T09:44:04;18.00;99.90
5394;DHT22;2720;52.396;10.064;2023-07-31T09:46:31;18.10;99.90
5394;DHT22;2720;52.396;10.064;2023-07-31T09:49:07;18.10;99.90
5394;DHT22;2720;52.396;10.064;2023-07-31T09:51:35;18.10;99.90
5394;DHT22;2720;52.396;10.064;2023-07-31T09:54:11;18.10;99.90
5394;DHT22;2720;52.396;10.064;2023-07-31T09:56:43;18.00;99.90
5394;DHT22;2720;52.396;10.064;2023-07-31T09:59:12;18.00;99.90
5394;DHT22;2720;52.396;10.064;2023-07-31T10:01:40;18.00;99.90
5394;DHT22;2720;52.396;10.064;2023-07-31T10:04:10;17.90;99.90
5394;DHT22;2720;52.396;10.064;2023-07-31T10:06:38;17.70;99.90
5394;DHT22;2720;52.396;10.064;2023-07-31T10:09:07;17.50;99.90
5394;DHT22;2720;52.396;10.064;2023-07-31T10:11:38;17.50;99.90
5394;DHT22;2720;52.396;10.064;2023-07-31T10:14:09;17.40;99.90
5394;DHT22;2720;52.396;10.064;2023-07-31T10:16:38;17.30;99.90
5394;DHT22;2720;52.396;10.064;2023-07-31T10:19:06;17.40;99.90
5394;DHT22;2720;52.396;10.064;2023-07-31T10:21:36;17.30;99.90
5394;DHT22;2720;52.396;10.064;2023-07-31T10:24:04;17.40;99.90
5394;DHT22;2720;52.396;10.064;2023-07-31T10:26:32;17.30;99.90
5394;DHT22;2720;52.396;10.064;2023-07-31T10:29:00;17.40;99.90
5394;DHT22;2720;52.396;10.064;2023-07-31T10:31:28;17.40;99.90
5394;DHT22;2720;52.396;10.064;2023-07-31T10:33:56;17.30;99.90
5394;DHT22;2720;52.396;10.064;2023-07-31T10:36:23;17.30;99.90
5394;DHT22;2720;52.396;10.064;2023-07-31T10:38:52;17.60;99.90
5394;DHT22;2720;52.396;10.064;2023-07-31T10:41:19;17.60;99.90
5394;DHT22;2720;52.396;10.064;2023-07-31T10:43:46;17.70;99.90
5394;DHT22;2720;52.396;10.064;2023-07-31T10:46:14;17.90;99.90
5394;DHT22;2720;52.396;10.064;2023-07-31T10:48:41;18.10;99.90
5394;DHT22;2720;52.396;10.064;2023-07-31T10:51:10;18.30;99.90
5394;DHT22;2720;52.396;10.064;2023-07-31T10:53:38;18.40;99.90
5394;DHT22;2720;52.396;10.064;2023-07-31T10:56:08;18.60;99.90
5394;DHT22;2720;52.396;10.064;2023-07-31T10:58:38;18.70;99.90
5394;DHT22;2720;52.396;10.064;2023-07-31T11:01:06;18.70;99.90
5394;DHT22;2720;52.396;10.064;2023-07-31T11:03:44;18.90;99.90
5394;DHT22;2720;52.396;10.064;2023-07-31T11:06:11;19.00;99.90
5394;DHT22;2720;52.396;10.064;2023-07-31T11:08:42;19.00;99.90
5394;DHT22;2720;52.396;10.064;2023-07-31T11:11:12;19.00;99.90
5394;DHT22;2720;52.396;10.064;2023-07-31T11:13:44;19.20;99.90
5394;DHT22;2720;52.396;10.064;2023-07-31T11:16:12;19.40;99.90
5394;DHT22;2720;52.396;10.064;2023-07-31T11:18:40;19.50;99.90
5394;DHT22;2720;52.396;10.064;2023-07-31T11:21:08;19.50;99.90
5394;DHT22;2720;52.396;10.064;2023-07-31T11:23:37;19.40;99.90
5394;DHT22;2720;52.396;10.064;2023-07-31T11:26:05;19.40;99.90
5394;DHT22;2720;52.396;10.064;2023-07-31T11:28:34;19.40;99.90
5394;DHT22;2720;52.396;10.064;2023-07-31T11:31:02;19.30;99.90
5394;DHT22;2720;52.396;10.064;2023-07-31T11:33:29;19.20;99.90
5394;DHT22;2720;52.396;10.064;2023-07-31T11:35:57;19.20;99.90
5394;DHT22;2720;52.396;10.064;2023-07-31T11:38:24;19.30;99.90
5394;DHT22;2720;52.396;10.064;2023-07-31T11:40:52;19.20;99.90
5394;DHT22;2720;52.396;10.064;2023-07-31T11:43:20;19.30;99.90
5394;DHT22;2720;52.396;10.064;2023-07-31T11:45:50;19.30;99.90
5394;DHT22;2720;52.396;10.064;2023-07-31T11:48:21;19.30;99.90
5394;DHT22;2720;52.396;10.064;2023-07-31T11:50:50;19.20;99.90
5394;DHT22;2720;52.396;10.064;2023-07-31T11:53:21;19.30;99.90
5394;DHT22;2720;52.396;10.064;2023-07-31T11:55:49;19.20;99.90
5394;DHT22;2720;52.396;10.064;2023-07-31T11:58:17;19.20;99.90
5394;DHT22;2720;52.396;10.064;2023-07-31T12:00:45;19.20;99.90
5394;DHT22;2720;52.396;10.064;2023-07-31T12:03:14;19.10;99.90
5394;DHT22;2720;52.396;10.064;2023-07-31T12:05:41;19.10;99.90
5394;DHT22;2720;52.396;10.064;2023-07-31T12:08:11;19.20;99.90
5394;DHT22;2720;52.396;10.064;2023-07-31T12:10:39;19.20;99.90
5394;DHT22;2720;52.396;10.064;2023-07-31T12:13:08;19.40;99.90
5394;DHT22;2720;52.396;10.064;2023-07-31T12:15:40;19.60;99.90
5394;DHT22;2720;52.396;10.064;2023-07-31T12:18:09;19.60;99.90
5394;DHT22;2720;52.396;10.064;2023-07-31T12:20:42;19.70;99.90
5394;DHT22;2720;52.396;10.064;2023-07-31T12:23:16;19.70;99.90
5394;DHT22;2720;52.396;10.064;2023-07-31T12:25:43;19.80;99.90
5394;DHT22;2720;52.396;10.064;2023-07-31T12:28:10;20.00;99.90
5394;DHT22;2720;52.396;10.064;2023-07-31T12:30:41;20.00;99.90
5394;DHT22;2720;52.396;10.064;2023-07-31T12:33:14;20.00;99.90
5394;DHT22;2720;52.396;10.064;2023-07-31T12:35:44;20.00;99.90
5394;DHT22;2720;52.396;10.064;2023-07-31T12:38:12;19.90;99.90
5394;DHT22;2720;52.396;10.064;2023-07-31T12:40:40;20.00;99.90
5394;DHT22;2720;52.396;10.064;2023-07-31T12:43:07;20.20;99.90
5394;DHT22;2720;52.396;10.064;2023-07-31T12:45:35;20.30;99.90
5394;DHT22;2720;52.396;10.064;2023-07-31T12:48:02;20.40;99.90
5394;DHT22;2720;52.396;10.064;2023-07-31T12:50:29;20.40;99.90
5394;DHT22;2720;52.396;10.064;2023-07-31T12:52:57;20.30;99.90
5394;DHT22;2720;52.396;10.064;2023-07-31T12:55:24;20.20;99.90
5394;DHT22;2720;52.396;10.064;2023-07-31T12:57:51;20.00;99.90
5394;DHT22;2720;52.396;10.064;2023-07-31T13:00:18;19.80;99.90
5394;DHT22;2720;52.396;10.064;2023-07-31T13:02:45;19.50;99.90
5394;DHT22;2720;52.396;10.064;2023-07-31T13:05:12;19.40;99.90
5394;DHT22;2720;52.396;10.064;2023-07-31T13:07:39;19.10;99.90
5394;DHT22;2720;52.396;10.064;2023-07-31T13:10:08;19.10;99.90
5394;DHT22;2720;52.396;10.064;2023-07-31T13:12:35;19.00;99.90
5394;DHT22;2720;52.396;10.064;2023-07-31T13:15:03;19.00;99.90
5394;DHT22;2720;52.396;10.064;2023-07-31T13:17:30;19.00;99.90
5394;DHT22;2720;52.396;10.064;2023-07-31T13:19:57;18.90;99.90
5394;DHT22;2720;52.396;10.064;2023-07-31T13:22:24;19.00;99.90
5394;DHT22;2720;52.396;10.064;2023-07-31T13:24:51;19.00;99.90
5394;DHT22;2720;52.396;10.064;2023-07-31T13:27:19;19.10;99.90
5394;DHT22;2720;52.396;10.064;2023-07-31T13:29:47;19.00;99.90
5394;DHT22;2720;52.396;10.064;2023-07-31T13:32:15;19.10;99.90
5394;DHT22;2720;52.396;10.064;2023-07-31T13:34:42;19.10;99.90
5394;DHT22;2720;52.396;10.064;2023-07-31T13:37:09;19.10;99.90
5394;DHT22;2720;52.396;10.064;2023-07-31T13:39:36;19.20;99.90
5394;DHT22;2720;52.396;10.064;2023-07-31T13:42:04;19.30;99.90
5394;DHT22;2720;52.396;10.064;2023-07-31T13:44:35;19.30;99.90
5394;DHT22;2720;52.396;10.064;2023-07-31T13:47:02;19.40;99.90
5394;DHT22;2720;52.396;10.064;2023-07-31T13:49:29;19.50;99.90
5394;DHT22;2720;52.396;10.064;2023-07-31T13:51:56;19.60;99.90
5394;DHT22;2720;52.396;10.064;2023-07-31T13:54:24;19.70;99.90
5394;DHT22;2720;52.396;10.064;2023-07-31T13:56:51;19.80;99.90
5394;DHT22;2720;52.396;10.064;2023-07-31T13:59:18;19.80;99.90
5394;DHT22;2720;52.396;10.064;2023-07-31T14:01:47;19.90;99.90
5394;DHT22;2720;52.396;10.064;2023-07-31T14:04:14;20.00;99.90
5394;DHT22;2720;52.396;10.064;2023-07-31T14:06:41;20.10;99.90
5394;DHT22;2720;52.396;10.064;2023-07-31T14:09:08;20.10;99.90
5394;DHT22;2720;52.396;10.064;2023-07-31T14:11:35;20.20;99.90
5394;DHT22;2720;52.396;10.064;2023-07-31T14:14:02;20.20;99.90
5394;DHT22;2720;52.396;10.064;2023-07-31T14:16:30;20.10;99.90
5394;DHT22;2720;52.396;10.064;2023-07-31T14:18:58;20.00;99.90
5394;DHT22;2720;52.396;10.064;2023-07-31T14:21:25;19.90;99.90
5394;DHT22;2720;52.396;10.064;2023-07-31T14:23:52;19.90;99.90
5394;DHT22;2720;52.396;10.064;2023-07-31T14:26:19;19.70;99.90
5394;DHT22;2720;52.396;10.064;2023-07-31T14:28:46;19.70;99.90
5394;DHT22;2720;52.396;10.064;2023-07-31T14:31:13;19.80;99.90
5394;DHT22;2720;52.396;10.064;2023-07-31T14:33:41;19.80;99.90
5394;DHT22;2720;52.396;10.064;2023-07-31T14:36:09;19.80;99.90
5394;DHT22;2720;52.396;10.064;2023-07-31T14:38:36;19.80;99.90
5394;DHT22;2720;52.396;10.064;2023-07-31T14:41:03;19.90;99.90
5394;DHT22;2720;52.396;10.064;2023-07-31T14:43:30;20.00;99.90
5394;DHT22;2720;52.396;10.064;2023-07-31T14:45:57;20.00;99.90
5394;DHT22;2720;52.396;10.064;2023-07-31T14:48:25;20.00;99.90
5394;DHT22;2720;52.396;10.064;2023-07-31T14:50:52;20.20;99.90
5394;DHT22;2720;52.396;10.064;2023-07-31T14:53:21;20.60;99.90
5394;DHT22;2720;52.396;10.064;2023-07-31T14:55:48;20.90;99.90
5394;DHT22;2720;52.396;10.064;2023-07-31T14:58:15;21.10;99.90
5394;DHT22;2720;52.396;10.064;2023-07-31T15:00:42;21.20;99.90
5394;DHT22;2720;52.396;10.064;2023-07-31T15:03:09;21.30;99.90
5394;DHT22;2720;52.396;10.064;2023-07-31T15:05:36;21.00;99.90
5394;DHT22;2720;52.396;10.064;2023-07-31T15:08:03;20.70;99.90
5394;DHT22;2720;52.396;10.064;2023-07-31T15:10:34;20.40;99.90
5394;DHT22;2720;52.396;10.064;2023-07-31T15:13:05;20.20;99.90
5394;DHT22;2720;52.396;10.064;2023-07-31T15:15:32;19.90;99.90
5394;DHT22;2720;52.396;10.064;2023-07-31T15:17:59;19.80;99.90
5394;DHT22;2720;52.396;10.064;2023-07-31T15:20:26;19.60;99.90
5394;DHT22;2720;52.396;10.064;2023-07-31T15:22:53;19.60;99.90
5394;DHT22;2720;52.396;10.064;2023-07-31T15:25:20;19.70;99.90
5394;DHT22;2720;52.396;10.064;2023-07-31T15:27:48;19.90;99.90
5394;DHT22;2720;52.396;10.064;2023-07-31T15:30:15;20.20;99.90
5394;DHT22;2720;52.396;10.064;2023-07-31T15:32:42;20.60;99.90
5394;DHT22;2720;52.396;10.064;2023-07-31T15:35:14;20.80;99.90
5394;DHT22;2720;52.396;10.064;2023-07-31T15:37:41;20.80;99.90
5394;DHT22;2720;52.396;10.064;2023-07-31T15:40:08;20.80;99.90
5394;DHT22;2720;52.396;10.064;2023-07-31T15:42:35;20.90;99.90
5394;DHT22;2720;52.396;10.064;2023-07-31T15:45:08;21.00;99.90
5394;DHT22;2720;52.396;10.064;2023-07-31T15:47:36;21.10;99.90
5394;DHT22;2720;52.396;10.064;2023-07-31T15:50:03;21.10;99.90
5394;DHT22;2720;52.396;10.064;2023-07-31T15:52:30;21.10;99.90
5394;DHT22;2720;52.396;10.064;2023-07-31T15:54:59;21.00;99.90